Terminal Aerodrome Forecast
Issued by NWS

Home | Current Version | Previous Version | Text Only | Print | Product List | Glossary On
Versions: 1 2 3 4 5 6 7 8 9 10 11 12 13
000
FTUS44 KTSA 201700
TAFXNA
TAF
KXNA 201720Z 2018/2118 11006KT P6SM SCT250
     FM210700 11005KT P6SM SCT025 OVC050
     FM211000 12007KT P6SM OVC015=

USA.gov is the U.S. government's official web portal to all federal, state and local government web resources and services.